Atahona, Argentina
Current Conditions -  °F | °C
As of 10:00 PM on Friday 28 Nov 2014 (Local Time) from SACO Reporting Station
Scattered Clouds Scattered Clouds  
Wind Chill: 72°   Ceiling: Unl
Heat Index: 72°   Visibility: 6mi
Dew Point: 55°   Wind: 6mph
Humidity: 57%   Direction: 360°N
Pressure: 29.83"   Gusts: NA
Location:  30.83°S, 63.55°W
Report Text: SACO 290100Z 36005KT 9999 FEW030 SCT10022/13 Q1010
Loading
Personal Weather Stations






























Interactive Weather Map New forecast layout! Learn more

10-Day Weather Forecast

Advertisements
Track Severe Weather on mobile